Orangeville, Canada
Current Conditions -  °F | °C
As of 9:04 PM on Wednesday 17 Dec 2014 (Local Time) from CYBN Reporting Station
Light Snow Light Snow  
Wind Chill: 24°   Ceiling: 7600
Heat Index: 30°   Visibility: 4mi
Dew Point: 30°   Wind: 6mph
Humidity: 100%   Direction: 280°W
Pressure: 29.93"   Gusts: NA
Location:  43.92°N, 80.09°W
Report Text: CYBN 180204Z AUTO 28005KT 240V320 4SM -SN BKN076 M01/M01 A2993
Loading
Personal Weather Stations






























Interactive Weather Map New forecast layout! Learn more

10-Day Weather Forecast

Advertisements
Track Severe Weather on mobile